createdAt,value
2022-10-29T00:00:26.354Z,1008.00
2022-10-29T00:01:26.424Z,1007.95
2022-10-29T00:02:26.388Z,1007.94
2022-10-29T00:03:26.293Z,1007.97
2022-10-29T00:04:26.283Z,1007.98
2022-10-29T00:05:26.284Z,1007.98
2022-10-29T00:06:26.253Z,1008.00
2022-10-29T00:07:26.276Z,1007.99
2022-10-29T00:08:26.236Z,1007.99
2022-10-29T00:09:26.211Z,1007.99
2022-10-29T00:10:26.226Z,1007.99
2022-10-29T00:11:26.184Z,1008.00
2022-10-29T00:12:26.174Z,1008.01
2022-10-29T00:13:26.163Z,1008.01
2022-10-29T00:14:26.134Z,1007.98
2022-10-29T00:15:26.152Z,1007.98
2022-10-29T00:16:26.124Z,1007.89
2022-10-29T00:17:26.102Z,1007.89
2022-10-29T00:18:26.105Z,1007.91
2022-10-29T00:19:26.088Z,1007.88
2022-10-29T00:20:26.085Z,1007.84
2022-10-29T00:21:26.055Z,1007.87
2022-10-29T00:22:26.053Z,1007.87
2022-10-29T00:23:26.027Z,1007.88
2022-10-29T00:24:26.015Z,1007.89
2022-10-29T00:25:26.015Z,1007.87
2022-10-29T00:26:25.986Z,1007.86
2022-10-29T00:27:25.965Z,1007.89
2022-10-29T00:28:25.964Z,1007.82
2022-10-29T00:29:25.945Z,1007.80
2022-10-29T00:30:25.942Z,1007.75
2022-10-29T00:31:26.024Z,1007.72
2022-10-29T00:32:25.888Z,1007.72
2022-10-29T00:33:25.913Z,1007.73
2022-10-29T00:34:25.883Z,1007.71
2022-10-29T00:35:25.883Z,1007.71
2022-10-29T00:36:25.853Z,1007.69
2022-10-29T00:37:25.834Z,1007.70
2022-10-29T00:38:25.830Z,1007.68
2022-10-29T00:39:25.817Z,1007.71
2022-10-29T00:40:25.824Z,1007.74
2022-10-29T00:41:25.786Z,1007.79
2022-10-29T00:42:25.757Z,1007.80
2022-10-29T00:43:25.756Z,1007.80
2022-10-29T00:44:25.775Z,1007.78
2022-10-29T00:45:25.744Z,1007.80
2022-10-29T00:46:25.788Z,1007.82
2022-10-29T00:47:25.713Z,1007.81
2022-10-29T00:48:25.688Z,1007.80
2022-10-29T00:49:25.678Z,1007.83
2022-10-29T00:50:25.674Z,1007.82
2022-10-29T00:51:25.713Z,1007.87
2022-10-29T00:52:25.682Z,1007.87
2022-10-29T00:53:25.639Z,1007.93
2022-10-29T00:54:25.621Z,1007.89
2022-10-29T00:55:25.597Z,1007.88
2022-10-29T00:56:25.600Z,1007.89
2022-10-29T00:57:25.575Z,1007.89
2022-10-29T00:58:25.557Z,1007.89
2022-10-29T00:59:25.553Z,1007.86
2022-10-29T01:00:25.526Z,1007.88
2022-10-29T01:01:25.691Z,1007.86
2022-10-29T01:02:25.724Z,1007.88
2022-10-29T01:03:25.486Z,1007.82
2022-10-29T01:04:25.478Z,1007.86
2022-10-29T01:05:25.471Z,1007.90
2022-10-29T01:06:25.467Z,1007.86
2022-10-29T01:07:25.425Z,1007.85
2022-10-29T01:08:25.420Z,1007.80
2022-10-29T01:09:25.399Z,1007.84
2022-10-29T01:10:25.408Z,1007.83
2022-10-29T01:11:25.382Z,1007.85
2022-10-29T01:12:25.359Z,1007.82
2022-10-29T01:13:25.352Z,1007.84
2022-10-29T01:14:25.348Z,1007.83
2022-10-29T01:15:25.339Z,1007.86
2022-10-29T01:16:25.316Z,1007.83
2022-10-29T01:17:25.297Z,1007.83
2022-10-29T01:18:25.278Z,1007.84
2022-10-29T01:19:25.343Z,1007.84
2022-10-29T01:20:25.269Z,1007.87
2022-10-29T01:21:25.264Z,1007.90
2022-10-29T01:22:25.237Z,1007.95
2022-10-29T01:23:25.209Z,1007.89
2022-10-29T01:24:25.203Z,1007.93
2022-10-29T01:25:46.232Z,1007.93
2022-10-29T01:26:25.190Z,1007.93
2022-10-29T01:27:25.170Z,1007.97
2022-10-29T01:28:25.203Z,1007.95
2022-10-29T01:29:25.154Z,1007.95
2022-10-29T01:30:25.151Z,1007.95
2022-10-29T01:31:25.121Z,1007.93
2022-10-29T01:32:25.110Z,1007.95
2022-10-29T01:33:25.103Z,1008.00
2022-10-29T01:34:25.081Z,1008.03
2022-10-29T01:35:25.101Z,1008.03
2022-10-29T01:36:25.050Z,1008.03
2022-10-29T01:37:25.050Z,1008.01
2022-10-29T01:38:25.030Z,1008.02
2022-10-29T01:39:25.010Z,1008.03
2022-10-29T01:40:25.004Z,1008.05
2022-10-29T01:41:25.012Z,1008.05
2022-10-29T01:42:24.971Z,1008.00
2022-10-29T01:43:24.962Z,1008.00
2022-10-29T01:44:24.941Z,1007.97
2022-10-29T01:45:24.934Z,1007.95
2022-10-29T01:46:24.932Z,1007.88
2022-10-29T01:47:24.902Z,1007.88
2022-10-29T01:48:26.714Z,1007.84
2022-10-29T01:49:24.909Z,1007.83
2022-10-29T01:50:24.872Z,1007.80
2022-10-29T01:51:24.872Z,1007.79
2022-10-29T01:52:24.850Z,1007.81
2022-10-29T01:53:24.831Z,1007.79
2022-10-29T01:54:24.811Z,1007.78
2022-10-29T01:55:24.801Z,1007.80
2022-10-29T01:56:24.803Z,1007.77
2022-10-29T01:57:24.764Z,1007.72
2022-10-29T01:58:24.765Z,1007.72
2022-10-29T01:59:36.098Z,1007.74
2022-10-29T02:00:25.746Z,1007.76
2022-10-29T02:01:24.867Z,1007.71
2022-10-29T02:02:24.713Z,1007.71
2022-10-29T02:03:24.693Z,1007.70
2022-10-29T02:04:24.682Z,1007.71
2022-10-29T02:05:24.663Z,1007.70
2022-10-29T02:06:24.671Z,1007.73
2022-10-29T02:07:24.644Z,1007.74
2022-10-29T02:08:24.622Z,1007.72
2022-10-29T02:09:24.613Z,1007.74
2022-10-29T02:10:24.605Z,1007.74
2022-10-29T02:11:24.603Z,1007.72
2022-10-29T02:12:24.574Z,1007.67
2022-10-29T02:13:24.573Z,1007.63
2022-10-29T02:14:24.545Z,1007.67
2022-10-29T02:15:24.533Z,1007.63
2022-10-29T02:16:24.534Z,1007.64
2022-10-29T02:17:24.503Z,1007.56
2022-10-29T02:18:24.492Z,1007.51
2022-10-29T02:19:24.482Z,1007.54
2022-10-29T02:20:24.475Z,1007.47
2022-10-29T02:21:24.473Z,1007.44
2022-10-29T02:22:24.443Z,1007.46
2022-10-29T02:23:24.412Z,1007.46
2022-10-29T02:24:24.414Z,1007.50
2022-10-29T02:25:24.476Z,1007.48
2022-10-29T02:26:24.404Z,1007.48
2022-10-29T02:27:24.377Z,1007.48
2022-10-29T02:28:24.353Z,1007.49
2022-10-29T02:29:24.344Z,1007.48
2022-10-29T02:30:24.334Z,1007.51
2022-10-29T02:31:24.333Z,1007.50
2022-10-29T02:32:24.293Z,1007.51
2022-10-29T02:33:24.295Z,1007.48
2022-10-29T02:34:24.277Z,1007.52
2022-10-29T02:35:24.263Z,1007.53
2022-10-29T02:36:24.283Z,1007.57
2022-10-29T02:37:24.235Z,1007.56
2022-10-29T02:38:24.222Z,1007.56
2022-10-29T02:39:24.214Z,1007.55
2022-10-29T02:40:24.202Z,1007.53
2022-10-29T02:41:24.215Z,1007.51
2022-10-29T02:42:24.185Z,1007.52
2022-10-29T02:43:24.145Z,1007.50
2022-10-29T02:44:24.142Z,1007.49
2022-10-29T02:45:24.134Z,1007.50
2022-10-29T02:46:24.114Z,1007.50
2022-10-29T02:47:24.115Z,1007.52
2022-10-29T02:48:24.095Z,1007.47
2022-10-29T02:49:24.066Z,1007.42
2022-10-29T02:50:24.069Z,1007.42
2022-10-29T02:51:24.032Z,1007.43
2022-10-29T02:52:24.057Z,1007.41
2022-10-29T02:53:24.022Z,1007.38
2022-10-29T02:54:24.013Z,1007.40
2022-10-29T02:55:23.985Z,1007.36
2022-10-29T02:56:23.976Z,1007.35
2022-10-29T02:57:23.985Z,1007.37
2022-10-29T02:58:23.981Z,1007.40
2022-10-29T02:59:23.936Z,1007.38
2022-10-29T03:00:23.937Z,1007.33
2022-10-29T03:01:24.069Z,1007.36
2022-10-29T03:02:24.157Z,1007.35
2022-10-29T03:03:23.878Z,1007.35
2022-10-29T03:04:23.877Z,1007.33
2022-10-29T03:05:23.864Z,1007.33
2022-10-29T03:06:23.854Z,1007.34
2022-10-29T03:07:23.847Z,1007.36
2022-10-29T03:08:23.826Z,1007.40
2022-10-29T03:09:23.806Z,1007.41
2022-10-29T03:10:23.813Z,1007.41
2022-10-29T03:11:23.777Z,1007.45
2022-10-29T03:12:23.784Z,1007.43
2022-10-29T03:13:23.828Z,1007.44
2022-10-29T03:14:23.735Z,1007.47
2022-10-29T03:15:23.729Z,1007.48
2022-10-29T03:16:23.713Z,1007.52
2022-10-29T03:17:23.707Z,1007.48
2022-10-29T03:18:23.687Z,1007.51
2022-10-29T03:19:23.675Z,1007.52
2022-10-29T03:20:23.657Z,1007.49
2022-10-29T03:21:23.636Z,1007.51
2022-10-29T03:22:23.647Z,1007.48
2022-10-29T03:23:23.616Z,1007.43
2022-10-29T03:24:23.597Z,1007.44
2022-10-29T03:25:23.591Z,1007.42
2022-10-29T03:26:23.586Z,1007.39
2022-10-29T03:27:23.577Z,1007.37
2022-10-29T03:28:23.553Z,1007.39
2022-10-29T03:29:23.537Z,1007.35
2022-10-29T03:30:23.527Z,1007.39
2022-10-29T03:31:23.507Z,1007.36
2022-10-29T03:32:23.528Z,1007.33
2022-10-29T03:33:23.477Z,1007.39
2022-10-29T03:34:23.469Z,1007.34
2022-10-29T03:35:23.458Z,1007.31
2022-10-29T03:36:23.469Z,1007.30
2022-10-29T03:37:23.431Z,1007.28
2022-10-29T03:38:23.438Z,1007.23
2022-10-29T03:39:23.397Z,1007.20
2022-10-29T03:40:23.396Z,1007.21
2022-10-29T03:41:23.378Z,1007.25
2022-10-29T03:42:23.368Z,1007.23
2022-10-29T03:43:23.408Z,1007.27
2022-10-29T03:44:23.348Z,1007.30
2022-10-29T03:45:23.327Z,1007.33
2022-10-29T03:46:23.308Z,1007.34
2022-10-29T03:47:23.298Z,1007.35
2022-10-29T03:48:23.308Z,1007.42
2022-10-29T03:49:23.268Z,1007.41
2022-10-29T03:50:23.259Z,1007.43
2022-10-29T03:51:23.231Z,1007.43
2022-10-29T03:52:23.230Z,1007.43
2022-10-29T03:53:23.240Z,1007.46
2022-10-29T03:54:23.218Z,1007.42
2022-10-29T03:55:23.189Z,1007.42
2022-10-29T03:56:23.183Z,1007.41
2022-10-29T03:57:23.162Z,1007.37
2022-10-29T03:58:23.208Z,1007.39
2022-10-29T03:59:23.135Z,1007.45
2022-10-29T04:00:23.119Z,1007.41
2022-10-29T04:01:23.210Z,1007.45
2022-10-29T04:02:23.223Z,1007.51
2022-10-29T04:03:23.102Z,1007.54
2022-10-29T04:04:23.079Z,1007.51
2022-10-29T04:06:18.716Z,1007.55
2022-10-29T04:07:18.693Z,1007.58
2022-10-29T04:08:18.725Z,1007.58
2022-10-29T04:09:18.675Z,1007.54
2022-10-29T04:10:18.664Z,1007.59
2022-10-29T04:11:18.645Z,1007.55
2022-10-29T04:12:18.634Z,1007.51
2022-10-29T04:13:18.634Z,1007.47
2022-10-29T04:14:18.606Z,1007.45
2022-10-29T04:15:18.596Z,1007.38
2022-10-29T04:16:18.576Z,1007.40
2022-10-29T04:17:18.554Z,1007.38
2022-10-29T04:18:18.565Z,1007.37
2022-10-29T04:19:18.534Z,1007.38
2022-10-29T04:20:41.300Z,1007.35
2022-10-29T04:28:17.521Z,1007.43
2022-10-29T04:29:19.407Z,1007.50
2022-10-29T04:30:18.414Z,1007.50
2022-10-29T04:31:18.376Z,1007.48
2022-10-29T04:32:18.365Z,1007.51
2022-10-29T04:33:18.367Z,1007.52
2022-10-29T04:34:18.337Z,1007.47
2022-10-29T04:35:18.315Z,1007.49
2022-10-29T04:36:18.326Z,1007.44
2022-10-29T04:37:18.315Z,1007.40
2022-10-29T04:38:18.317Z,1007.42
2022-10-29T04:39:20.969Z,1007.49
2022-10-29T04:40:19.256Z,1007.54
2022-10-29T04:41:18.248Z,1007.54
2022-10-29T04:42:18.236Z,1007.57
2022-10-29T04:43:18.241Z,1007.54
2022-10-29T04:44:18.221Z,1007.57
2022-10-29T04:45:18.185Z,1007.53
2022-10-29T04:46:18.187Z,1007.44
2022-10-29T04:47:18.166Z,1007.37
2022-10-29T04:48:18.175Z,1007.33
2022-10-29T04:49:18.156Z,1007.34
2022-10-29T04:50:18.137Z,1007.37
2022-10-29T04:51:18.128Z,1007.33
2022-10-29T04:52:18.096Z,1007.40
2022-10-29T04:53:18.107Z,1007.35
2022-10-29T04:54:18.069Z,1007.33
2022-10-29T04:55:18.056Z,1007.41
2022-10-29T04:56:18.046Z,1007.44
2022-10-29T04:57:18.021Z,1007.50
2022-10-29T04:58:18.047Z,1007.53
2022-10-29T04:59:18.005Z,1007.52
2022-10-29T05:00:18.901Z,1007.55
2022-10-29T05:01:18.097Z,1007.52
2022-10-29T05:02:17.978Z,1007.53
2022-10-29T05:03:17.964Z,1007.50
2022-10-29T05:04:17.937Z,1007.55
2022-10-29T05:05:17.919Z,1007.57
2022-10-29T05:06:17.906Z,1007.54
2022-10-29T05:07:17.910Z,1007.49
2022-10-29T05:08:17.895Z,1007.44
2022-10-29T05:09:17.887Z,1007.39
2022-10-29T05:10:17.869Z,1007.47
2022-10-29T05:11:17.847Z,1007.43
2022-10-29T05:12:17.858Z,1007.41
2022-10-29T05:13:17.818Z,1007.36
2022-10-29T05:14:17.817Z,1007.36
2022-10-29T05:15:17.797Z,1007.38
2022-10-29T05:16:17.792Z,1007.37
2022-10-29T05:17:17.766Z,1007.43
2022-10-29T05:18:17.760Z,1007.45
2022-10-29T05:19:17.757Z,1007.39
2022-10-29T05:20:17.728Z,1007.36
2022-10-29T05:21:17.718Z,1007.33
2022-10-29T05:22:17.717Z,1007.29
2022-10-29T05:23:17.709Z,1007.35
2022-10-29T05:24:17.669Z,1007.34
2022-10-29T05:25:17.665Z,1007.35
2022-10-29T05:26:17.651Z,1007.25
2022-10-29T05:27:17.658Z,1007.21
2022-10-29T05:28:17.638Z,1007.23
2022-10-29T05:29:17.606Z,1007.17
2022-10-29T05:30:17.589Z,1007.12
2022-10-29T05:31:17.594Z,1007.04
2022-10-29T05:32:17.572Z,1007.04
2022-10-29T05:33:17.578Z,1007.05
2022-10-29T05:34:17.539Z,1007.08
2022-10-29T05:35:17.577Z,1007.10
2022-10-29T05:36:17.507Z,1007.05
2022-10-29T05:37:17.491Z,1007.08
2022-10-29T05:38:17.480Z,1007.06
2022-10-29T05:39:17.471Z,1007.10
2022-10-29T05:40:17.468Z,1007.15
2022-10-29T05:41:17.448Z,1007.11
2022-10-29T05:42:17.448Z,1007.10
2022-10-29T05:43:17.445Z,1007.09
2022-10-29T05:44:17.428Z,1007.07
2022-10-29T05:45:17.395Z,1007.09
2022-10-29T05:46:17.378Z,1007.07
2022-10-29T05:47:17.370Z,1007.04
2022-10-29T05:48:17.360Z,1007.04
2022-10-29T05:49:17.367Z,1007.06
2022-10-29T05:50:17.329Z,1007.00
2022-10-29T05:51:17.308Z,1006.96
2022-10-29T05:52:17.300Z,1006.96
2022-10-29T05:53:17.290Z,1006.99
2022-10-29T05:54:17.289Z,1006.96
2022-10-29T05:55:17.317Z,1006.94
2022-10-29T05:56:17.249Z,1006.94
2022-10-29T05:57:17.226Z,1006.92
2022-10-29T05:58:17.220Z,1006.92
2022-10-29T05:59:17.221Z,1006.94
2022-10-29T06:00:17.193Z,1006.98
2022-10-29T06:01:17.255Z,1006.98
2022-10-29T06:02:17.265Z,1007.01
2022-10-29T06:03:17.216Z,1007.01
2022-10-29T06:04:17.170Z,1006.96
2022-10-29T06:05:17.131Z,1006.93
2022-10-29T06:06:17.154Z,1006.93
2022-10-29T06:07:17.098Z,1006.95
2022-10-29T06:08:17.111Z,1006.97
2022-10-29T06:09:17.068Z,1006.99
2022-10-29T06:10:17.049Z,1006.98
2022-10-29T06:11:17.029Z,1006.99
2022-10-29T06:12:17.140Z,1006.96
2022-10-29T06:13:17.010Z,1006.96
2022-10-29T06:14:17.009Z,1006.93
2022-10-29T06:15:16.987Z,1006.96
2022-10-29T06:16:16.970Z,1006.95
2022-10-29T06:17:16.949Z,1006.98
2022-10-29T06:18:16.963Z,1007.00
2022-10-29T06:19:16.959Z,1007.03
2022-10-29T06:20:16.931Z,1007.05
2022-10-29T06:21:16.912Z,1007.12
2022-10-29T06:22:16.881Z,1007.12
2022-10-29T06:23:16.962Z,1007.14
2022-10-29T06:24:16.882Z,1007.12
2022-10-29T06:25:16.866Z,1007.10
2022-10-29T06:26:16.848Z,1007.13
2022-10-29T06:27:16.834Z,1007.09
2022-10-29T06:28:16.830Z,1007.10
2022-10-29T06:29:16.827Z,1007.06
2022-10-29T06:30:16.783Z,1007.06
2022-10-29T06:31:16.781Z,1007.01
2022-10-29T06:32:16.760Z,1007.00
2022-10-29T06:33:16.749Z,1006.98
2022-10-29T06:34:16.751Z,1006.96
2022-10-29T06:35:16.735Z,1006.93
2022-10-29T06:36:16.710Z,1006.92
2022-10-29T06:37:16.702Z,1006.99
2022-10-29T06:38:16.681Z,1007.00
2022-10-29T06:39:16.691Z,1007.00
2022-10-29T06:40:16.652Z,1006.91
2022-10-29T06:41:16.640Z,1006.92
2022-10-29T06:42:16.627Z,1006.96
2022-10-29T06:43:16.628Z,1007.03
2022-10-29T06:44:16.621Z,1007.03
2022-10-29T06:45:16.591Z,1006.99
2022-10-29T06:46:16.573Z,1007.00
2022-10-29T06:47:16.559Z,1006.98
2022-10-29T06:48:21.697Z,1007.01
2022-10-29T06:49:17.542Z,1006.98
2022-10-29T06:50:16.512Z,1006.99
2022-10-29T06:51:16.599Z,1006.99
2022-10-29T06:52:16.492Z,1007.01
2022-10-29T06:53:16.490Z,1007.08
2022-10-29T06:54:16.490Z,1007.04
2022-10-29T06:55:16.496Z,1007.04
2022-10-29T06:56:16.431Z,1007.06
2022-10-29T06:57:16.441Z,1007.04
2022-10-29T06:58:16.412Z,1007.01
2022-10-29T06:59:16.433Z,1007.00
2022-10-29T07:00:16.389Z,1007.02
2022-10-29T07:01:16.409Z,1007.06
2022-10-29T07:02:16.350Z,1007.08
2022-10-29T07:03:16.357Z,1007.09
2022-10-29T07:04:16.362Z,1007.14
2022-10-29T07:05:16.332Z,1007.10
2022-10-29T07:06:16.311Z,1007.07
2022-10-29T07:07:16.370Z,1007.06
2022-10-29T07:08:16.283Z,1007.08
2022-10-29T07:09:16.294Z,1007.11
2022-10-29T07:10:16.252Z,1007.17
2022-10-29T07:11:16.245Z,1007.11
2022-10-29T07:12:16.232Z,1007.12
2022-10-29T07:13:16.212Z,1007.10
2022-10-29T07:14:16.213Z,1007.10
2022-10-29T07:15:16.256Z,1007.12
2022-10-29T07:16:16.176Z,1007.13
2022-10-29T07:17:16.154Z,1007.10
2022-10-29T07:18:16.181Z,1007.11
2022-10-29T07:19:16.156Z,1007.11
2022-10-29T07:20:16.121Z,1007.06
2022-10-29T07:21:16.113Z,1007.06
2022-10-29T07:22:16.092Z,1007.04
2022-10-29T07:23:16.183Z,1007.05
2022-10-29T07:24:16.094Z,1007.07
2022-10-29T07:25:16.054Z,1007.07
2022-10-29T07:26:16.046Z,1007.06
2022-10-29T07:27:16.104Z,1007.08
2022-10-29T07:28:16.021Z,1007.11
2022-10-29T07:29:16.022Z,1007.16
2022-10-29T07:30:15.984Z,1007.18
2022-10-29T07:31:15.973Z,1007.19
2022-10-29T07:32:15.964Z,1007.16
2022-10-29T07:33:15.944Z,1007.13
2022-10-29T07:34:15.987Z,1007.13
2022-10-29T07:35:15.924Z,1007.11
2022-10-29T07:36:15.905Z,1007.11
2022-10-29T07:37:15.904Z,1007.07
2022-10-29T07:38:15.878Z,1007.08
2022-10-29T07:39:15.872Z,1007.11
2022-10-29T07:40:15.964Z,1007.08
2022-10-29T07:41:15.837Z,1007.05
2022-10-29T07:42:15.836Z,1007.04
2022-10-29T07:43:15.890Z,1007.02
2022-10-29T07:44:15.827Z,1007.02
2022-10-29T07:45:15.806Z,1007.04
2022-10-29T07:46:15.784Z,1007.05
2022-10-29T07:47:15.763Z,1007.07
2022-10-29T07:48:15.735Z,1007.11
2022-10-29T07:49:15.724Z,1007.08
2022-10-29T07:50:15.730Z,1007.08
2022-10-29T07:51:15.705Z,1007.09
2022-10-29T07:52:15.683Z,1007.12
2022-10-29T07:53:15.688Z,1007.09
2022-10-29T07:54:15.755Z,1007.05
2022-10-29T07:55:15.853Z,1007.06
2022-10-29T07:56:15.645Z,1007.07
2022-10-29T07:57:15.625Z,1007.10
2022-10-29T07:58:15.606Z,1007.11
2022-10-29T07:59:15.606Z,1007.17
2022-10-29T08:00:15.596Z,1007.16
2022-10-29T08:01:15.795Z,1007.18
2022-10-29T08:02:15.585Z,1007.18
2022-10-29T08:03:15.555Z,1007.18
2022-10-29T08:04:15.605Z,1007.19
2022-10-29T08:05:15.543Z,1007.17
2022-10-29T08:06:15.705Z,1007.22
2022-10-29T08:07:15.486Z,1007.21
2022-10-29T08:08:15.466Z,1007.20
2022-10-29T08:09:15.463Z,1007.17
2022-10-29T08:10:15.459Z,1007.15
2022-10-29T08:11:15.467Z,1007.14
2022-10-29T08:12:15.441Z,1007.11
2022-10-29T08:13:15.415Z,1007.11
2022-10-29T08:14:17.781Z,1007.13
2022-10-29T08:15:15.396Z,1007.11
2022-10-29T08:16:15.365Z,1007.11
2022-10-29T08:17:15.365Z,1007.12
2022-10-29T08:18:15.327Z,1007.11
2022-10-29T08:19:16.030Z,1007.14
2022-10-29T08:20:15.436Z,1007.13
2022-10-29T08:21:17.255Z,1007.18
2022-10-29T08:22:19.003Z,1007.22
2022-10-29T08:23:15.976Z,1007.21
2022-10-29T08:24:15.266Z,1007.22
2022-10-29T08:25:15.255Z,1007.20
2022-10-29T08:26:15.246Z,1007.23
2022-10-29T08:27:15.217Z,1007.25
2022-10-29T08:28:15.219Z,1007.23
2022-10-29T08:29:15.648Z,1007.27
2022-10-29T08:30:15.187Z,1007.26
2022-10-29T08:31:15.177Z,1007.23
2022-10-29T08:32:15.148Z,1007.28
2022-10-29T08:33:15.147Z,1007.25
2022-10-29T08:34:15.118Z,1007.26
2022-10-29T08:35:15.138Z,1007.23
2022-10-29T08:36:15.100Z,1007.19
2022-10-29T08:37:15.085Z,1007.19
2022-10-29T08:38:15.067Z,1007.19
2022-10-29T08:39:15.056Z,1007.19
2022-10-29T08:40:15.038Z,1007.16
2022-10-29T08:41:15.058Z,1007.13
2022-10-29T08:42:15.028Z,1007.13
2022-10-29T08:43:15.008Z,1007.11
2022-10-29T08:44:15.016Z,1007.13
2022-10-29T08:45:14.979Z,1007.11
2022-10-29T08:46:15.007Z,1007.12
2022-10-29T08:47:14.961Z,1007.13
2022-10-29T08:48:14.937Z,1007.11
2022-10-29T08:49:14.929Z,1007.10
2022-10-29T08:50:14.909Z,1007.09
2022-10-29T08:51:14.919Z,1007.07
2022-10-29T08:52:14.878Z,1007.08
2022-10-29T08:53:23.593Z,1007.06
2022-10-29T08:54:32.242Z,1007.08
2022-10-29T08:55:15.848Z,1007.12
2022-10-29T08:56:14.848Z,1007.13
2022-10-29T08:57:14.808Z,1007.14
2022-10-29T08:58:14.839Z,1007.16
2022-10-29T08:59:14.791Z,1007.18
2022-10-29T09:00:14.769Z,1007.13
2022-10-29T09:01:14.946Z,1007.09
2022-10-29T09:02:14.817Z,1007.07
2022-10-29T09:03:14.729Z,1007.08
2022-10-29T09:04:14.727Z,1007.06
2022-10-29T09:05:14.699Z,1007.02
2022-10-29T09:06:14.727Z,1007.00
2022-10-29T09:07:14.699Z,1007.02
2022-10-29T09:08:14.679Z,1006.95
2022-10-29T09:09:14.660Z,1006.99
2022-10-29T09:10:14.632Z,1006.97
2022-10-29T09:11:14.639Z,1006.95
2022-10-29T09:12:14.611Z,1006.94
2022-10-29T09:13:14.600Z,1006.95
2022-10-29T09:14:14.580Z,1006.96
2022-10-29T09:15:14.604Z,1006.92
2022-10-29T09:16:14.571Z,1006.94
2022-10-29T09:17:15.700Z,1006.95
2022-10-29T09:18:14.531Z,1006.99
2022-10-29T09:19:14.520Z,1006.95
2022-10-29T09:20:14.500Z,1006.99
2022-10-29T09:21:14.530Z,1007.00
2022-10-29T09:22:14.480Z,1007.02
2022-10-29T09:23:14.465Z,1006.97
2022-10-29T09:24:14.477Z,1006.98
2022-10-29T09:25:15.839Z,1006.97
2022-10-29T09:26:14.509Z,1007.00
2022-10-29T09:27:15.743Z,1006.97
2022-10-29T09:28:14.380Z,1006.95
2022-10-29T09:29:14.417Z,1006.97
2022-10-29T09:30:14.372Z,1006.98
2022-10-29T09:31:14.422Z,1006.96
2022-10-29T09:32:14.371Z,1006.92
2022-10-29T09:33:14.383Z,1006.88
2022-10-29T09:34:14.347Z,1006.88
2022-10-29T09:35:14.411Z,1006.85
2022-10-29T09:36:14.348Z,1006.84
2022-10-29T09:37:14.273Z,1006.88
2022-10-29T09:38:14.251Z,1006.91
2022-10-29T09:39:14.250Z,1006.88
2022-10-29T09:40:14.263Z,1006.89
2022-10-29T09:41:14.214Z,1006.91
2022-10-29T09:42:14.223Z,1006.90
2022-10-29T09:43:14.175Z,1006.91
2022-10-29T09:44:14.181Z,1006.89
2022-10-29T09:45:14.178Z,1006.87
2022-10-29T09:46:14.156Z,1006.88
2022-10-29T09:47:14.157Z,1006.87
2022-10-29T09:48:14.123Z,1006.84
2022-10-29T09:49:14.103Z,1006.84
2022-10-29T09:50:14.090Z,1006.83
2022-10-29T09:51:14.107Z,1006.83
2022-10-29T09:52:14.055Z,1006.80
2022-10-29T09:53:14.062Z,1006.81
2022-10-29T09:54:14.065Z,1006.83
2022-10-29T09:55:14.033Z,1006.84
2022-10-29T09:56:14.006Z,1006.87
2022-10-29T09:57:14.105Z,1006.84
2022-10-29T09:58:14.063Z,1006.87
2022-10-29T09:59:13.975Z,1006.83
2022-10-29T10:00:13.967Z,1006.90
2022-10-29T10:01:14.056Z,1006.86
2022-10-29T10:02:14.090Z,1006.86
2022-10-29T10:03:14.028Z,1006.88
2022-10-29T10:04:14.045Z,1006.93
2022-10-29T10:05:13.913Z,1006.91
2022-10-29T10:06:13.885Z,1006.87
2022-10-29T10:07:14.036Z,1006.91
2022-10-29T10:08:13.861Z,1006.85
2022-10-29T10:09:13.843Z,1006.85
2022-10-29T10:10:13.829Z,1006.84
2022-10-29T10:11:14.055Z,1006.82
2022-10-29T10:12:14.032Z,1006.83
2022-10-29T10:13:17.013Z,1006.85
2022-10-29T10:14:13.778Z,1006.87
2022-10-29T10:15:13.768Z,1006.86
2022-10-29T10:16:13.759Z,1006.87
2022-10-29T10:17:13.745Z,1006.89
2022-10-29T10:18:13.714Z,1006.88
2022-10-29T10:19:13.705Z,1006.86
2022-10-29T10:20:13.697Z,1006.88
2022-10-29T10:21:13.713Z,1006.85
2022-10-29T10:22:16.262Z,1006.84
2022-10-29T10:23:13.658Z,1006.79
2022-10-29T10:24:13.627Z,1006.78
2022-10-29T10:25:13.643Z,1006.81
2022-10-29T10:26:13.626Z,1006.79
2022-10-29T10:27:13.597Z,1006.74
2022-10-29T10:28:13.585Z,1006.76
2022-10-29T10:29:13.589Z,1006.73
2022-10-29T10:30:13.565Z,1006.74
2022-10-29T10:31:13.580Z,1006.71
2022-10-29T10:32:13.537Z,1006.75
2022-10-29T10:33:13.573Z,1006.76
2022-10-29T10:34:13.498Z,1006.74
2022-10-29T10:35:13.488Z,1006.76
2022-10-29T10:36:13.495Z,1006.73
2022-10-29T10:37:13.466Z,1006.73
2022-10-29T10:38:13.449Z,1006.72
2022-10-29T10:39:13.427Z,1006.70
2022-10-29T10:40:13.429Z,1006.66
2022-10-29T10:41:13.437Z,1006.64
2022-10-29T10:42:13.398Z,1006.63
2022-10-29T10:43:13.377Z,1006.64
2022-10-29T10:44:13.398Z,1006.59
2022-10-29T10:45:13.346Z,1006.58
2022-10-29T10:46:13.346Z,1006.56
2022-10-29T10:47:13.336Z,1006.53
2022-10-29T10:48:13.519Z,1006.55
2022-10-29T10:49:13.326Z,1006.57
2022-10-29T10:50:20.494Z,1006.51
2022-10-29T10:51:13.276Z,1006.50
2022-10-29T10:52:13.295Z,1006.54
2022-10-29T10:53:13.263Z,1006.48
2022-10-29T10:54:13.289Z,1006.48
2022-10-29T10:55:13.227Z,1006.50
2022-10-29T10:56:13.217Z,1006.47
2022-10-29T10:57:13.215Z,1006.50
2022-10-29T10:58:13.183Z,1006.50
2022-10-29T10:59:13.164Z,1006.49
2022-10-29T11:00:13.155Z,1006.49
2022-10-29T11:01:13.243Z,1006.43
2022-10-29T11:02:13.191Z,1006.46
2022-10-29T11:03:13.164Z,1006.41
2022-10-29T11:04:13.120Z,1006.44
2022-10-29T11:05:13.088Z,1006.42
2022-10-29T11:06:13.077Z,1006.37
2022-10-29T11:07:13.085Z,1006.35
2022-10-29T11:08:13.051Z,1006.37
2022-10-29T11:09:13.035Z,1006.38
2022-10-29T11:10:13.016Z,1006.41
2022-10-29T11:11:13.007Z,1006.42
2022-10-29T11:12:13.015Z,1006.41
2022-10-29T11:13:12.967Z,1006.37
2022-10-29T11:14:12.963Z,1006.36
2022-10-29T11:15:12.949Z,1006.31
2022-10-29T11:16:12.929Z,1006.33
2022-10-29T11:17:12.936Z,1006.30
2022-10-29T11:18:12.945Z,1006.27
2022-10-29T11:19:12.887Z,1006.27
2022-10-29T11:20:12.877Z,1006.29
2022-10-29T11:21:12.857Z,1006.36
2022-10-29T11:22:12.868Z,1006.32
2022-10-29T11:23:12.839Z,1006.30
2022-10-29T11:24:12.818Z,1006.30
2022-10-29T11:25:12.808Z,1006.28
2022-10-29T11:26:12.829Z,1006.28
2022-10-29T11:27:12.798Z,1006.27
2022-10-29T11:28:12.789Z,1006.19
2022-10-29T11:29:12.762Z,1006.21
2022-10-29T11:30:12.748Z,1006.20
2022-10-29T11:31:12.736Z,1006.19
2022-10-29T11:32:12.766Z,1006.16
2022-10-29T11:33:12.770Z,1006.19
2022-10-29T11:34:12.698Z,1006.18
2022-10-29T11:35:12.679Z,1006.18
2022-10-29T11:36:12.673Z,1006.18
2022-10-29T11:37:12.675Z,1006.18
2022-10-29T11:38:12.642Z,1006.15
2022-10-29T11:39:12.620Z,1006.15
2022-10-29T11:40:12.620Z,1006.18
2022-10-29T11:41:12.601Z,1006.13
2022-10-29T11:42:12.599Z,1006.13
2022-10-29T11:43:12.581Z,1006.10
2022-10-29T11:44:12.550Z,1006.08
2022-10-29T11:45:12.566Z,1006.08
2022-10-29T11:46:12.531Z,1006.07
2022-10-29T11:47:12.540Z,1006.05
2022-10-29T11:48:15.435Z,1006.02
2022-10-29T11:49:13.490Z,1006.02
2022-10-29T11:50:12.491Z,1006.01
2022-10-29T11:51:12.461Z,1006.00
2022-10-29T11:52:12.469Z,1006.00
2022-10-29T11:53:12.440Z,1006.02
2022-10-29T11:54:12.420Z,1005.96
2022-10-29T11:55:12.401Z,1005.98
2022-10-29T11:56:12.470Z,1006.00
2022-10-29T11:57:12.420Z,1005.99
2022-10-29T11:58:12.408Z,1005.97
2022-10-29T11:59:12.339Z,1005.96
2022-10-29T12:00:12.424Z,1005.97
2022-10-29T12:01:12.355Z,1005.92
2022-10-29T12:02:12.312Z,1005.93
2022-10-29T12:03:12.321Z,1005.93
2022-10-29T12:04:12.283Z,1005.92
2022-10-29T12:05:12.272Z,1005.88
2022-10-29T12:06:12.261Z,1005.91
2022-10-29T12:07:12.241Z,1005.87
2022-10-29T12:08:12.251Z,1005.89
2022-10-29T12:09:12.220Z,1005.86
2022-10-29T12:10:12.310Z,1005.87
2022-10-29T12:11:12.194Z,1005.85
2022-10-29T12:12:12.183Z,1005.84
2022-10-29T12:13:12.192Z,1005.84